createdAt,value
2022-10-11T00:01:54.146Z,13.42
2022-10-11T00:11:54.455Z,13.41
2022-10-11T00:21:54.473Z,13.17
2022-10-11T00:31:54.804Z,13.19
2022-10-11T00:41:54.904Z,12.89
2022-10-11T00:51:55.049Z,12.72
2022-10-11T01:01:55.083Z,13.20
2022-10-11T01:11:55.398Z,13.19
2022-10-11T01:21:55.423Z,12.93
2022-10-11T01:31:55.749Z,12.89
2022-10-11T01:41:55.789Z,13.08
2022-10-11T01:51:56.094Z,13.01
2022-10-11T02:01:56.173Z,12.96
2022-10-11T02:11:56.352Z,12.72
2022-10-11T02:21:56.373Z,12.68
2022-10-11T02:31:56.692Z,12.42
2022-10-11T02:41:56.724Z,12.37
2022-10-11T02:51:57.056Z,12.31
2022-10-11T03:01:57.207Z,12.23
2022-10-11T03:11:57.406Z,12.12
2022-10-11T03:21:57.418Z,11.88
2022-10-11T03:31:57.746Z,11.86
2022-10-11T03:41:57.776Z,11.83
2022-10-11T03:51:58.094Z,11.95
2022-10-11T04:01:58.193Z,11.86
2022-10-11T04:11:58.334Z,11.96
2022-10-11T04:21:58.362Z,12.12
2022-10-11T04:31:58.689Z,12.59
2022-10-11T04:41:58.719Z,12.28
2022-10-11T04:51:59.035Z,12.35
2022-10-11T05:01:59.162Z,12.75
2022-10-11T05:11:59.278Z,12.72
2022-10-11T05:21:59.296Z,12.56
2022-10-11T05:31:59.634Z,12.53
2022-10-11T05:41:59.677Z,12.42
2022-10-11T05:51:59.988Z,12.46
2022-10-11T06:02:00.002Z,12.47
2022-10-11T06:12:00.332Z,12.60
2022-10-11T06:22:00.370Z,12.57
2022-10-11T06:32:00.691Z,12.85
2022-10-11T06:42:00.720Z,12.97
2022-10-11T06:52:01.038Z,12.92
2022-10-11T07:02:01.070Z,13.11
2022-10-11T07:12:01.387Z,13.33
2022-10-11T07:22:01.423Z,13.46
2022-10-11T07:32:01.740Z,13.55
2022-10-11T07:42:01.756Z,13.91
2022-10-11T07:52:02.080Z,13.85
2022-10-11T08:02:02.154Z,13.81
2022-10-11T08:12:02.345Z,13.85
2022-10-11T08:22:02.383Z,14.15
2022-10-11T08:32:02.679Z,14.33
2022-10-11T08:42:02.710Z,14.46
2022-10-11T08:52:03.032Z,14.73
2022-10-11T09:02:03.047Z,14.81
2022-10-11T09:12:03.386Z,16.41
2022-10-11T09:22:03.413Z,16.48
2022-10-11T09:32:03.740Z,16.83
2022-10-11T09:42:03.749Z,16.93
2022-10-11T09:52:04.088Z,17.04
2022-10-11T10:02:04.166Z,17.25
2022-10-11T10:12:04.434Z,17.90
2022-10-11T10:22:04.471Z,18.15
2022-10-11T10:32:20.241Z,17.97
2022-10-11T10:42:05.938Z,18.48
2022-10-11T10:52:06.257Z,19.47
2022-10-11T11:02:28.244Z,19.54
2022-10-11T11:12:06.556Z,19.84
2022-10-11T11:22:05.848Z,20.20
2022-10-11T11:32:05.879Z,20.08
2022-10-11T11:42:06.208Z,20.28
2022-10-11T11:52:06.433Z,21.04
2022-10-11T12:02:06.809Z,21.40
2022-10-11T12:12:06.630Z,21.71
2022-10-11T12:22:06.910Z,21.75
2022-10-11T12:32:07.132Z,22.12
2022-10-11T12:42:07.460Z,22.42
2022-10-11T12:52:07.497Z,22.64
2022-10-11T13:02:07.816Z,22.49
2022-10-11T13:12:07.852Z,22.31
2022-10-11T13:22:08.161Z,22.25
2022-10-11T13:32:08.197Z,22.30
2022-10-11T13:42:08.518Z,21.99
2022-10-11T13:52:08.572Z,21.64
2022-10-11T14:02:08.873Z,22.00
2022-10-11T14:12:08.891Z,22.07
2022-10-11T14:22:09.211Z,22.10
2022-10-11T14:32:09.242Z,21.13
2022-10-11T14:42:09.566Z,20.85
2022-10-11T14:52:09.587Z,20.88
2022-10-11T15:02:09.910Z,20.48
2022-10-11T15:12:09.935Z,20.16
2022-10-11T15:22:10.266Z,20.03
2022-10-11T15:32:10.349Z,19.59
2022-10-11T15:42:10.621Z,19.36
2022-10-11T15:52:10.664Z,18.95
2022-10-11T16:02:11.107Z,18.84
2022-10-11T16:12:11.158Z,18.65
2022-10-11T16:22:11.409Z,18.33
2022-10-11T16:32:11.647Z,18.12
2022-10-11T16:42:11.965Z,17.86
2022-10-11T16:52:11.989Z,17.64
2022-10-11T17:02:12.326Z,17.46
2022-10-11T17:12:12.392Z,17.43
2022-10-11T17:22:12.460Z,17.31
2022-10-11T17:32:12.897Z,17.11
2022-10-11T17:42:12.976Z,16.88
2022-10-11T17:52:13.938Z,16.68
2022-10-11T18:02:13.307Z,16.45
2022-10-11T18:12:13.209Z,16.38
2022-10-11T18:22:13.533Z,16.27
2022-10-11T18:32:13.766Z,16.09
2022-10-11T18:42:13.907Z,15.87
2022-10-11T18:52:14.910Z,15.62
2022-10-11T19:02:14.438Z,15.56
2022-10-11T19:12:14.173Z,15.51
2022-10-11T19:22:14.557Z,15.39
2022-10-11T19:32:14.813Z,15.34
2022-10-11T19:42:15.153Z,15.28
2022-10-11T19:52:15.030Z,15.28
2022-10-11T20:02:16.312Z,15.29
2022-10-11T20:12:15.469Z,15.07
2022-10-11T20:22:15.694Z,14.92
2022-10-11T20:32:15.707Z,14.92
2022-10-11T20:42:16.041Z,14.96
2022-10-11T20:52:16.068Z,14.83
2022-10-11T21:02:18.938Z,14.73
2022-10-11T21:12:16.417Z,14.60
2022-10-11T21:22:19.946Z,14.35
2022-10-11T21:32:16.768Z,14.50
2022-10-11T21:42:17.132Z,14.50
2022-10-11T21:52:17.158Z,14.40
2022-10-11T22:02:17.518Z,14.40
2022-10-11T22:12:17.563Z,14.39
2022-10-11T22:22:17.919Z,14.37
2022-10-11T22:32:17.951Z,14.36
2022-10-11T22:42:18.267Z,14.33
2022-10-11T22:52:18.303Z,14.27
2022-10-11T23:02:18.626Z,14.10
2022-10-11T23:12:18.652Z,14.07
2022-10-11T23:22:18.974Z,13.99
2022-10-11T23:32:19.000Z,13.99
2022-10-11T23:42:19.321Z,13.99
2022-10-11T23:52:19.350Z,13.99
